sensor_id;sensor_type;location;lat;lon;timestamp;pressure;altitude;pressure_sealevel;temperature;humidity
75051;BME280;63628;47.656;11.310;2023-07-16T00:01:59;94632.00;;;27.05;57.59
75051;BME280;63628;47.656;11.310;2023-07-16T00:04:26;94642.97;;;26.96;57.15
75051;BME280;63628;47.656;11.310;2023-07-16T00:06:53;94658.63;;;27.11;57.79
75051;BME280;63628;47.656;11.310;2023-07-16T00:09:20;94645.56;;;26.68;49.50
75051;BME280;63628;47.656;11.310;2023-07-16T00:11:46;94637.75;;;26.91;51.67
75051;BME280;63628;47.656;11.310;2023-07-16T00:14:13;94636.09;;;27.11;57.43
75051;BME280;63628;47.656;11.310;2023-07-16T00:16:40;94654.66;;;27.21;57.56
75051;BME280;63628;47.656;11.310;2023-07-16T00:19:10;94610.59;;;26.91;57.68
75051;BME280;63628;47.656;11.310;2023-07-16T00:21:37;94662.13;;;27.24;57.64
75051;BME280;63628;47.656;11.310;2023-07-16T00:24:04;94650.78;;;27.22;57.25
75051;BME280;63628;47.656;11.310;2023-07-16T00:26:31;94650.56;;;27.27;57.35
75051;BME280;63628;47.656;11.310;2023-07-16T00:28:57;94645.91;;;27.28;57.37
75051;BME280;63628;47.656;11.310;2023-07-16T00:31:24;94644.56;;;27.22;57.58
75051;BME280;63628;47.656;11.310;2023-07-16T00:33:51;94641.84;;;27.22;57.57
75051;BME280;63628;47.656;11.310;2023-07-16T00:36:19;94640.47;;;27.28;57.34
75051;BME280;63628;47.656;11.310;2023-07-16T00:38:45;94650.13;;;27.25;57.14
75051;BME280;63628;47.656;11.310;2023-07-16T00:41:12;94655.31;;;27.30;57.01
75051;BME280;63628;47.656;11.310;2023-07-16T00:43:39;94667.56;;;27.24;57.27
75051;BME280;63628;47.656;11.310;2023-07-16T00:46:06;94684.78;;;27.28;57.16
75051;BME280;63628;47.656;11.310;2023-07-16T00:48:33;94688.97;;;27.26;56.50
75051;BME280;63628;47.656;11.310;2023-07-16T00:51:01;94695.53;;;27.00;57.40
75051;BME280;63628;47.656;11.310;2023-07-16T00:53:30;94715.25;;;27.22;57.03
75051;BME280;63628;47.656;11.310;2023-07-16T00:55:57;94728.81;;;27.22;56.47
75051;BME280;63628;47.656;11.310;2023-07-16T00:58:24;94730.53;;;27.26;56.97
75051;BME280;63628;47.656;11.310;2023-07-16T01:00:51;94738.69;;;27.26;56.72
75051;BME280;63628;47.656;11.310;2023-07-16T01:03:17;94752.28;;;27.14;57.34
75051;BME280;63628;47.656;11.310;2023-07-16T01:05:48;94755.78;;;27.14;57.14
75051;BME280;63628;47.656;11.310;2023-07-16T01:08:21;94757.94;;;27.21;57.05
75051;BME280;63628;47.656;11.310;2023-07-16T01:10:55;94769.34;;;26.69;57.40
75051;BME280;63628;47.656;11.310;2023-07-16T01:13:22;94779.59;;;26.84;58.17
75051;BME280;63628;47.656;11.310;2023-07-16T01:15:49;94785.06;;;26.01;51.25
75051;BME280;63628;47.656;11.310;2023-07-16T01:18:16;94787.84;;;26.34;58.64
75051;BME280;63628;47.656;11.310;2023-07-16T01:20:42;94794.53;;;26.91;57.32
75051;BME280;63628;47.656;11.310;2023-07-16T01:23:28;94798.34;;;26.77;57.84
75051;BME280;63628;47.656;11.310;2023-07-16T01:26:12;94811.44;;;26.96;57.01
75051;BME280;63628;47.656;11.310;2023-07-16T01:31:52;94813.63;;;27.03;57.13
75051;BME280;63628;47.656;11.310;2023-07-16T01:34:21;94823.44;;;25.82;53.43
75051;BME280;63628;47.656;11.310;2023-07-16T01:36:49;94816.78;;;26.72;57.83
75051;BME280;63628;47.656;11.310;2023-07-16T01:39:16;94816.56;;;26.98;56.90
75051;BME280;63628;47.656;11.310;2023-07-16T01:41:43;94824.81;;;27.01;56.76
75051;BME280;63628;47.656;11.310;2023-07-16T01:44:11;94826.75;;;27.01;56.83
75051;BME280;63628;47.656;11.310;2023-07-16T01:46:37;94829.88;;;26.91;57.28
75051;BME280;63628;47.656;11.310;2023-07-16T01:49:04;94827.94;;;26.91;57.16
75051;BME280;63628;47.656;11.310;2023-07-16T01:51:31;94828.16;;;26.86;57.46
75051;BME280;63628;47.656;11.310;2023-07-16T01:53:57;94837.09;;;26.87;57.30
75051;BME280;63628;47.656;11.310;2023-07-16T01:56:24;94838.00;;;26.91;57.18
75051;BME280;63628;47.656;11.310;2023-07-16T01:58:51;94838.13;;;26.94;56.52
75051;BME280;63628;47.656;11.310;2023-07-16T02:01:19;94835.63;;;26.89;57.02
75051;BME280;63628;47.656;11.310;2023-07-16T02:03:46;94830.19;;;26.89;56.73
75051;BME280;63628;47.656;11.310;2023-07-16T02:06:12;94827.81;;;26.88;56.98
75051;BME280;63628;47.656;11.310;2023-07-16T02:08:41;94834.13;;;26.79;57.28
75051;BME280;63628;47.656;11.310;2023-07-16T02:11:08;94831.41;;;26.79;57.10
75051;BME280;63628;47.656;11.310;2023-07-16T02:13:34;94836.03;;;26.79;57.20
75051;BME280;63628;47.656;11.310;2023-07-16T02:16:01;94831.28;;;26.76;57.32
75051;BME280;63628;47.656;11.310;2023-07-16T02:18:29;94828.81;;;26.83;56.63
75051;BME280;63628;47.656;11.310;2023-07-16T02:20:56;94837.50;;;26.76;57.06
75051;BME280;63628;47.656;11.310;2023-07-16T02:23:22;94830.50;;;26.75;57.16
75051;BME280;63628;47.656;11.310;2023-07-16T02:25:49;94827.78;;;26.75;57.22
75051;BME280;63628;47.656;11.310;2023-07-16T02:28:16;94836.91;;;26.71;57.07
75051;BME280;63628;47.656;11.310;2023-07-16T02:30:42;94832.75;;;26.73;57.10
75051;BME280;63628;47.656;11.310;2023-07-16T02:33:09;94842.41;;;26.62;57.11
75051;BME280;63628;47.656;11.310;2023-07-16T02:35:37;94840.16;;;26.64;57.00
75051;BME280;63628;47.656;11.310;2023-07-16T02:38:04;94846.19;;;26.70;56.70
75051;BME280;63628;47.656;11.310;2023-07-16T02:40:30;94853.72;;;26.64;57.02
75051;BME280;63628;47.656;11.310;2023-07-16T02:42:57;94851.97;;;26.68;56.73
75051;BME280;63628;47.656;11.310;2023-07-16T02:45:24;94853.09;;;26.67;56.91
75051;BME280;63628;47.656;11.310;2023-07-16T02:47:50;94865.38;;;26.65;57.03
75051;BME280;63628;47.656;11.310;2023-07-16T02:50:17;94868.59;;;26.67;56.79
75051;BME280;63628;47.656;11.310;2023-07-16T02:52:45;94866.38;;;26.60;56.70
75051;BME280;63628;47.656;11.310;2023-07-16T02:55:12;94863.66;;;26.60;56.91
75051;BME280;63628;47.656;11.310;2023-07-16T02:57:38;94857.72;;;26.67;56.37
75051;BME280;63628;47.656;11.310;2023-07-16T03:00:06;94847.16;;;26.65;56.58
75051;BME280;63628;47.656;11.310;2023-07-16T03:02:33;94848.38;;;26.56;57.02
75051;BME280;63628;47.656;11.310;2023-07-16T03:05:00;94844.53;;;26.57;56.84
75051;BME280;63628;47.656;11.310;2023-07-16T03:07:27;94845.97;;;26.54;56.95
75051;BME280;63628;47.656;11.310;2023-07-16T03:09:55;94858.63;;;26.50;57.13
75051;BME280;63628;47.656;11.310;2023-07-16T03:12:21;94860.69;;;26.53;56.83
75051;BME280;63628;47.656;11.310;2023-07-16T03:14:50;94867.03;;;26.57;56.46
75051;BME280;63628;47.656;11.310;2023-07-16T03:17:17;94857.31;;;26.56;56.42
75051;BME280;63628;47.656;11.310;2023-07-16T03:19:44;94851.09;;;26.56;56.57
75051;BME280;63628;47.656;11.310;2023-07-16T03:22:10;94842.88;;;26.43;56.87
75051;BME280;63628;47.656;11.310;2023-07-16T03:24:37;94847.50;;;26.43;56.99
75051;BME280;63628;47.656;11.310;2023-07-16T03:27:06;94858.16;;;26.48;56.57
75051;BME280;63628;47.656;11.310;2023-07-16T03:29:44;94864.41;;;26.48;56.57
75051;BME280;63628;47.656;11.310;2023-07-16T03:32:11;94867.44;;;26.47;56.42
75051;BME280;63628;47.656;11.310;2023-07-16T03:34:37;94864.41;;;26.48;56.27
75051;BME280;63628;47.656;11.310;2023-07-16T03:37:04;94863.94;;;26.46;56.62
75051;BME280;63628;47.656;11.310;2023-07-16T03:39:31;94855.31;;;26.44;56.80
75051;BME280;63628;47.656;11.310;2023-07-16T03:41:57;94856.59;;;26.47;56.50
75051;BME280;63628;47.656;11.310;2023-07-16T03:44:25;94867.78;;;26.45;56.35
75051;BME280;63628;47.656;11.310;2023-07-16T03:46:52;94875.44;;;26.43;56.47
75051;BME280;63628;47.656;11.310;2023-07-16T03:49:18;94873.72;;;26.39;56.50
75051;BME280;63628;47.656;11.310;2023-07-16T03:51:45;94879.19;;;26.30;56.88
75051;BME280;63628;47.656;11.310;2023-07-16T03:54:12;94883.34;;;26.28;56.98
75051;BME280;63628;47.656;11.310;2023-07-16T03:56:38;94901.22;;;26.29;57.03
75051;BME280;63628;47.656;11.310;2023-07-16T03:59:05;94906.50;;;26.34;56.57
75051;BME280;63628;47.656;11.310;2023-07-16T04:01:33;94915.59;;;26.29;56.95
75051;BME280;63628;47.656;11.310;2023-07-16T04:04:00;94914.34;;;26.27;56.82
75051;BME280;63628;47.656;11.310;2023-07-16T04:06:27;94911.28;;;26.28;56.84
75051;BME280;63628;47.656;11.310;2023-07-16T04:08:53;94910.63;;;26.31;56.65
75051;BME280;63628;47.656;11.310;2023-07-16T04:11:20;94910.69;;;26.22;56.55
75051;BME280;63628;47.656;11.310;2023-07-16T04:13:47;94915.97;;;26.19;56.71
75051;BME280;63628;47.656;11.310;2023-07-16T04:16:13;94923.19;;;26.15;54.15
75051;BME280;63628;47.656;11.310;2023-07-16T04:18:42;94929.03;;;25.06;59.43
75051;BME280;63628;47.656;11.310;2023-07-16T04:21:08;94934.09;;;24.47;60.07
75051;BME280;63628;47.656;11.310;2023-07-16T04:23:35;94948.34;;;24.22;61.18
75051;BME280;63628;47.656;11.310;2023-07-16T04:26:02;94953.75;;;24.22;61.04
75051;BME280;63628;47.656;11.310;2023-07-16T04:28:29;94954.06;;;25.20;59.80
75051;BME280;63628;47.656;11.310;2023-07-16T04:30:55;94957.66;;;25.68;58.44
75051;BME280;63628;47.656;11.310;2023-07-16T04:33:22;94957.84;;;25.54;58.54
75051;BME280;63628;47.656;11.310;2023-07-16T04:35:50;94967.09;;;25.27;59.94
75051;BME280;63628;47.656;11.310;2023-07-16T04:38:17;94962.59;;;25.74;56.90
75051;BME280;63628;47.656;11.310;2023-07-16T04:40:43;94967.09;;;25.44;58.89
75051;BME280;63628;47.656;11.310;2023-07-16T04:43:10;94972.16;;;25.72;58.52
75051;BME280;63628;47.656;11.310;2023-07-16T04:45:37;94974.06;;;25.80;58.20
75051;BME280;63628;47.656;11.310;2023-07-16T04:48:04;94983.47;;;25.82;57.92
75051;BME280;63628;47.656;11.310;2023-07-16T04:50:31;94976.59;;;25.85;57.51
75051;BME280;63628;47.656;11.310;2023-07-16T04:52:59;94984.31;;;23.91;60.83
75051;BME280;63628;47.656;11.310;2023-07-16T04:55:25;94979.09;;;22.20;67.18
75051;BME280;63628;47.656;11.310;2023-07-16T04:57:52;94983.47;;;23.82;61.40
75051;BME280;63628;47.656;11.310;2023-07-16T05:00:20;94996.19;;;21.36;70.96
75051;BME280;63628;47.656;11.310;2023-07-16T05:02:47;95002.69;;;21.68;69.62
75051;BME280;63628;47.656;11.310;2023-07-16T05:05:14;95008.34;;;22.54;68.04
75051;BME280;63628;47.656;11.310;2023-07-16T05:07:40;95006.56;;;21.10;70.96
75051;BME280;63628;47.656;11.310;2023-07-16T05:10:09;95008.78;;;21.73;68.82
75051;BME280;63628;47.656;11.310;2023-07-16T05:12:36;95008.25;;;22.18;68.18
75051;BME280;63628;47.656;11.310;2023-07-16T05:15:03;95005.00;;;23.43;64.15
75051;BME280;63628;47.656;11.310;2023-07-16T05:17:30;95003.81;;;23.80;60.71
75051;BME280;63628;47.656;11.310;2023-07-16T05:19:57;95006.13;;;23.64;63.46
75051;BME280;63628;47.656;11.310;2023-07-16T05:22:24;95006.66;;;24.37;61.49
75051;BME280;63628;47.656;11.310;2023-07-16T05:24:50;95011.56;;;24.34;61.14
75051;BME280;63628;47.656;11.310;2023-07-16T05:27:18;95010.59;;;24.96;60.16
75051;BME280;63628;47.656;11.310;2023-07-16T05:29:45;95018.91;;;25.17;58.71
75051;BME280;63628;47.656;11.310;2023-07-16T05:32:12;95025.91;;;23.73;63.25
75051;BME280;63628;47.656;11.310;2023-07-16T05:34:38;95032.16;;;24.53;60.63
75051;BME280;63628;47.656;11.310;2023-07-16T05:37:05;95029.59;;;25.13;59.44
75051;BME280;63628;47.656;11.310;2023-07-16T05:39:32;95034.22;;;25.21;59.25
75051;BME280;63628;47.656;11.310;2023-07-16T05:41:59;95036.28;;;25.24;58.41
75051;BME280;63628;47.656;11.310;2023-07-16T05:44:29;95035.97;;;25.26;58.10
75051;BME280;63628;47.656;11.310;2023-07-16T05:46:56;95037.09;;;25.08;57.02
75051;BME280;63628;47.656;11.310;2023-07-16T05:49:23;95038.16;;;23.79;62.40
75051;BME280;63628;47.656;11.310;2023-07-16T05:51:50;95046.13;;;22.81;66.14
75051;BME280;63628;47.656;11.310;2023-07-16T05:54:16;95042.59;;;24.28;60.26
75051;BME280;63628;47.656;11.310;2023-07-16T05:56:43;95047.91;;;22.58;65.49
75051;BME280;63628;47.656;11.310;2023-07-16T05:59:09;95052.47;;;20.57;74.04
75051;BME280;63628;47.656;11.310;2023-07-16T06:01:37;95059.72;;;20.09;76.17
75051;BME280;63628;47.656;11.310;2023-07-16T06:04:04;95061.63;;;20.33;75.12
75051;BME280;63628;47.656;11.310;2023-07-16T06:06:31;95048.28;;;22.10;68.54
75051;BME280;63628;47.656;11.310;2023-07-16T06:08:58;95048.31;;;23.15;63.24
75051;BME280;63628;47.656;11.310;2023-07-16T06:11:24;95051.47;;;22.95;65.44
75051;BME280;63628;47.656;11.310;2023-07-16T06:13:53;95053.53;;;24.63;61.11
75051;BME280;63628;47.656;11.310;2023-07-16T06:16:20;95051.53;;;24.77;59.58
75051;BME280;63628;47.656;11.310;2023-07-16T06:18:48;95052.81;;;24.88;59.94
75051;BME280;63628;47.656;11.310;2023-07-16T06:21:15;95051.66;;;24.01;60.60
75051;BME280;63628;47.656;11.310;2023-07-16T06:23:42;95048.13;;;22.02;67.78
75051;BME280;63628;47.656;11.310;2023-07-16T06:26:08;95038.28;;;24.27;61.76
75051;BME280;63628;47.656;11.310;2023-07-16T06:28:35;95040.53;;;24.74;59.96
75051;BME280;63628;47.656;11.310;2023-07-16T06:31:02;95028.59;;;24.83;59.71
75051;BME280;63628;47.656;11.310;2023-07-16T06:33:29;95021.75;;;24.86;60.00
75051;BME280;63628;47.656;11.310;2023-07-16T06:35:57;95024.13;;;24.87;59.67
75051;BME280;63628;47.656;11.310;2023-07-16T06:38:23;95013.00;;;24.89;59.17
75051;BME280;63628;47.656;11.310;2023-07-16T06:40:54;95017.13;;;24.86;59.48
75051;BME280;63628;47.656;11.310;2023-07-16T06:43:21;95016.81;;;24.88;59.54
75051;BME280;63628;47.656;11.310;2023-07-16T06:45:49;95016.31;;;24.86;59.21
75051;BME280;63628;47.656;11.310;2023-07-16T06:48:15;95017.91;;;24.87;59.46
75051;BME280;63628;47.656;11.310;2023-07-16T06:50:42;95022.22;;;24.88;59.51
75051;BME280;63628;47.656;11.310;2023-07-16T06:53:10;95018.25;;;24.85;59.54
75051;BME280;63628;47.656;11.310;2023-07-16T06:55:37;95019.34;;;24.84;59.20
75051;BME280;63628;47.656;11.310;2023-07-16T06:58:03;95006.28;;;24.86;59.34
75051;BME280;63628;47.656;11.310;2023-07-16T07:00:30;95022.53;;;24.86;59.12
75051;BME280;63628;47.656;11.310;2023-07-16T07:02:57;95019.03;;;24.86;59.44
75051;BME280;63628;47.656;11.310;2023-07-16T07:05:24;95010.91;;;24.86;59.38
75051;BME280;63628;47.656;11.310;2023-07-16T07:07:50;95009.00;;;24.86;59.21
75051;BME280;63628;47.656;11.310;2023-07-16T07:10:18;95005.66;;;24.89;58.83
75051;BME280;63628;47.656;11.310;2023-07-16T07:12:45;95009.63;;;24.83;58.86
75051;BME280;63628;47.656;11.310;2023-07-16T07:15:11;95017.13;;;24.86;59.24
75051;BME280;63628;47.656;11.310;2023-07-16T07:17:39;95011.41;;;24.88;58.88
75051;BME280;63628;47.656;11.310;2023-07-16T07:20:06;95012.47;;;23.59;62.84
75051;BME280;63628;47.656;11.310;2023-07-16T07:22:33;95015.09;;;24.35;59.38
75051;BME280;63628;47.656;11.310;2023-07-16T07:25:00;95023.28;;;23.01;65.20
75051;BME280;63628;47.656;11.310;2023-07-16T07:27:28;95017.50;;;22.94;64.90
75051;BME280;63628;47.656;11.310;2023-07-16T07:29:55;95017.66;;;21.41;71.41
75051;BME280;63628;47.656;11.310;2023-07-16T07:32:22;95024.38;;;21.06;72.86
75051;BME280;63628;47.656;11.310;2023-07-16T07:34:50;95019.88;;;21.86;68.72
75051;BME280;63628;47.656;11.310;2023-07-16T07:37:16;95016.03;;;23.32;62.30
75051;BME280;63628;47.656;11.310;2023-07-16T07:39:43;95020.06;;;22.99;64.14
75051;BME280;63628;47.656;11.310;2023-07-16T07:42:13;95010.34;;;22.34;65.87
75051;BME280;63628;47.656;11.310;2023-07-16T07:44:41;95019.63;;;23.42;62.02
75051;BME280;63628;47.656;11.310;2023-07-16T07:47:08;95011.31;;;23.83;61.33
75051;BME280;63628;47.656;11.310;2023-07-16T07:49:35;95009.06;;;23.54;61.32
75051;BME280;63628;47.656;11.310;2023-07-16T07:52:02;95008.97;;;22.23;66.29
75051;BME280;63628;47.656;11.310;2023-07-16T07:54:31;95012.97;;;22.12;68.02
75051;BME280;63628;47.656;11.310;2023-07-16T07:57:00;95012.00;;;23.21;65.51
75051;BME280;63628;47.656;11.310;2023-07-16T07:59:30;95008.06;;;22.28;68.74
75051;BME280;63628;47.656;11.310;2023-07-16T08:01:58;95009.56;;;21.41;72.62
75051;BME280;63628;47.656;11.310;2023-07-16T08:04:26;95009.88;;;21.40;71.17
75051;BME280;63628;47.656;11.310;2023-07-16T08:06:53;95004.97;;;22.34;68.16
75051;BME280;63628;47.656;11.310;2023-07-16T08:09:20;95009.03;;;23.31;64.29
75051;BME280;63628;47.656;11.310;2023-07-16T08:11:46;95010.16;;;21.57;71.23
75051;BME280;63628;47.656;11.310;2023-07-16T08:14:13;94997.50;;;21.99;70.63
75051;BME280;63628;47.656;11.310;2023-07-16T08:16:40;94987.69;;;21.48;72.72
75051;BME280;63628;47.656;11.310;2023-07-16T08:19:08;94991.88;;;21.54;69.46
75051;BME280;63628;47.656;11.310;2023-07-16T08:21:35;94992.31;;;22.85;65.45
75051;BME280;63628;47.656;11.310;2023-07-16T08:24:05;94993.22;;;23.16;63.85
75051;BME280;63628;47.656;11.310;2023-07-16T08:26:31;94982.03;;;23.31;63.63
75051;BME280;63628;47.656;11.310;2023-07-16T08:28:58;94977.84;;;24.01;61.35
75051;BME280;63628;47.656;11.310;2023-07-16T08:31:27;94985.84;;;24.06;61.25
75051;BME280;63628;47.656;11.310;2023-07-16T08:33:54;94985.56;;;24.25;60.95
75051;BME280;63628;47.656;11.310;2023-07-16T08:36:22;94981.47;;;24.27;60.32
75051;BME280;63628;47.656;11.310;2023-07-16T08:38:49;94981.34;;;24.32;60.26
75051;BME280;63628;47.656;11.310;2023-07-16T08:41:16;94984.03;;;24.32;59.94
75051;BME280;63628;47.656;11.310;2023-07-16T08:43:45;94979.66;;;23.52;65.16
75051;BME280;63628;47.656;11.310;2023-07-16T08:46:12;94984.06;;;23.48;66.64
75051;BME280;63628;47.656;11.310;2023-07-16T08:48:40;94979.59;;;24.06;61.13
75051;BME280;63628;47.656;11.310;2023-07-16T08:51:07;94971.69;;;24.09;62.38
75051;BME280;63628;47.656;11.310;2023-07-16T08:53:37;94974.25;;;24.14;62.57
75051;BME280;63628;47.656;11.310;2023-07-16T08:56:04;94972.00;;;24.08;62.02
75051;BME280;63628;47.656;11.310;2023-07-16T08:58:32;94975.47;;;24.48;63.73
75051;BME280;63628;47.656;11.310;2023-07-16T09:00:59;94974.44;;;24.75;62.58
75051;BME280;63628;47.656;11.310;2023-07-16T09:03:27;94970.56;;;24.67;59.89
75051;BME280;63628;47.656;11.310;2023-07-16T09:05:53;94975.31;;;24.53;62.16
75051;BME280;63628;47.656;11.310;2023-07-16T09:08:20;94968.19;;;24.65;59.75
75051;BME280;63628;47.656;11.310;2023-07-16T09:10:54;94961.69;;;24.84;62.73
75051;BME280;63628;47.656;11.310;2023-07-16T09:13:22;94970.94;;;23.86;61.27
75051;BME280;63628;47.656;11.310;2023-07-16T09:15:53;94971.81;;;24.44;61.41
75051;BME280;63628;47.656;11.310;2023-07-16T09:18:21;94965.75;;;24.47;60.57
75051;BME280;63628;47.656;11.310;2023-07-16T09:20:48;94969.91;;;24.53;62.23
75051;BME280;63628;47.656;11.310;2023-07-16T09:23:17;94961.78;;;24.44;59.59
75051;BME280;63628;47.656;11.310;2023-07-16T09:25:44;94958.31;;;24.61;59.64
75051;BME280;63628;47.656;11.310;2023-07-16T09:28:12;94971.44;;;25.19;58.83
75051;BME280;63628;47.656;11.310;2023-07-16T09:30:39;94971.34;;;23.71;57.13
75051;BME280;63628;47.656;11.310;2023-07-16T09:33:10;94960.47;;;24.33;56.80
75051;BME280;63628;47.656;11.310;2023-07-16T09:35:37;94953.88;;;24.74;57.72
75051;BME280;63628;47.656;11.310;2023-07-16T09:38:04;94946.03;;;24.55;55.30
75051;BME280;63628;47.656;11.310;2023-07-16T09:40:32;94947.13;;;23.97;58.51
75051;BME280;63628;47.656;11.310;2023-07-16T09:42:59;94937.72;;;23.55;62.37
75051;BME280;63628;47.656;11.310;2023-07-16T09:45:29;94932.31;;;24.34;57.48
75051;BME280;63628;47.656;11.310;2023-07-16T09:47:56;94934.22;;;24.33;57.22
75051;BME280;63628;47.656;11.310;2023-07-16T09:50:23;94925.94;;;24.39;58.73
75051;BME280;63628;47.656;11.310;2023-07-16T09:52:51;94920.69;;;24.42;58.58
75051;BME280;63628;47.656;11.310;2023-07-16T09:55:21;94919.78;;;24.90;55.56
75051;BME280;63628;47.656;11.310;2023-07-16T09:57:50;94907.81;;;24.48;57.39
75051;BME280;63628;47.656;11.310;2023-07-16T10:00:17;94905.78;;;25.78;51.18
75051;BME280;63628;47.656;11.310;2023-07-16T10:02:49;94906.03;;;26.02;49.25
75051;BME280;63628;47.656;11.310;2023-07-16T10:05:18;94906.22;;;25.42;53.56
75051;BME280;63628;47.656;11.310;2023-07-16T10:07:50;94902.38;;;25.89;54.85
75051;BME280;63628;47.656;11.310;2023-07-16T10:10:18;94905.63;;;24.84;52.12
75051;BME280;63628;47.656;11.310;2023-07-16T10:12:55;94900.72;;;26.06;51.06
75051;BME280;63628;47.656;11.310;2023-07-16T10:15:26;94915.16;;;24.90;56.68
75051;BME280;63628;47.656;11.310;2023-07-16T10:17:55;94907.53;;;24.92;52.82
75051;BME280;63628;47.656;11.310;2023-07-16T10:20:29;94900.88;;;25.63;54.01
75051;BME280;63628;47.656;11.310;2023-07-16T10:22:56;94908.31;;;26.21;53.47
75051;BME280;63628;47.656;11.310;2023-07-16T10:25:25;94916.38;;;25.53;54.98
75051;BME280;63628;47.656;11.310;2023-07-16T10:27:52;94915.50;;;25.79;55.95
75051;BME280;63628;47.656;11.310;2023-07-16T10:30:20;94916.31;;;26.17;51.47
75051;BME280;63628;47.656;11.310;2023-07-16T10:32:47;94918.47;;;26.03;50.69
75051;BME280;63628;47.656;11.310;2023-07-16T10:35:15;94915.66;;;25.82;51.71
75051;BME280;63628;47.656;11.310;2023-07-16T10:37:42;94915.16;;;25.16;55.46
75051;BME280;63628;47.656;11.310;2023-07-16T10:40:10;94908.53;;;26.07;52.85
75051;BME280;63628;47.656;11.310;2023-07-16T10:42:39;94912.88;;;26.00;50.54
75051;BME280;63628;47.656;11.310;2023-07-16T10:45:07;94913.84;;;25.95;53.54
75051;BME280;63628;47.656;11.310;2023-07-16T10:47:35;94913.75;;;25.83;56.04
75051;BME280;63628;47.656;11.310;2023-07-16T10:50:03;94909.28;;;26.46;53.77
75051;BME280;63628;47.656;11.310;2023-07-16T10:52:32;94915.28;;;26.31;56.27
75051;BME280;63628;47.656;11.310;2023-07-16T10:54:58;94908.56;;;26.58;51.68
75051;BME280;63628;47.656;11.310;2023-07-16T10:57:26;94911.00;;;25.91;51.42
75051;BME280;63628;47.656;11.310;2023-07-16T10:59:55;94912.25;;;25.47;54.91
75051;BME280;63628;47.656;11.310;2023-07-16T11:02:23;94910.28;;;25.74;55.03
75051;BME280;63628;47.656;11.310;2023-07-16T11:04:51;94909.00;;;25.71;54.84
75051;BME280;63628;47.656;11.310;2023-07-16T11:07:21;94910.16;;;26.00;53.43
75051;BME280;63628;47.656;11.310;2023-07-16T11:09:50;94911.22;;;26.45;53.63
75051;BME280;63628;47.656;11.310;2023-07-16T11:12:19;94910.72;;;26.73;50.79
75051;BME280;63628;47.656;11.310;2023-07-16T11:14:48;94904.78;;;25.91;55.33
75051;BME280;63628;47.656;11.310;2023-07-16T11:17:15;94903.34;;;25.29;53.26
75051;BME280;63628;47.656;11.310;2023-07-16T11:19:45;94904.63;;;25.23;56.62
75051;BME280;63628;47.656;11.310;2023-07-16T11:22:13;94906.19;;;26.27;55.48
75051;BME280;63628;47.656;11.310;2023-07-16T11:24:41;94898.19;;;26.01;54.14
75051;BME280;63628;47.656;11.310;2023-07-16T11:27:14;94908.34;;;24.76;53.88
75051;BME280;63628;47.656;11.310;2023-07-16T11:29:45;94903.38;;;25.21;55.92
75051;BME280;63628;47.656;11.310;2023-07-16T11:32:13;94905.50;;;26.09;54.44
75051;BME280;63628;47.656;11.310;2023-07-16T11:34:51;94902.56;;;26.22;55.54
75051;BME280;63628;47.656;11.310;2023-07-16T11:37:19;94909.44;;;25.82;55.00
75051;BME280;63628;47.656;11.310;2023-07-16T11:39:47;94904.59;;;25.49;52.22
75051;BME280;63628;47.656;11.310;2023-07-16T11:42:19;94907.66;;;25.86;52.27
75051;BME280;63628;47.656;11.310;2023-07-16T11:44:49;94902.31;;;25.69;49.75
75051;BME280;63628;47.656;11.310;2023-07-16T11:47:16;94895.44;;;25.63;53.33
75051;BME280;63628;47.656;11.310;2023-07-16T11:49:43;94900.56;;;26.32;51.83
75051;BME280;63628;47.656;11.310;2023-07-16T11:52:09;94893.72;;;26.05;50.94
75051;BME280;63628;47.656;11.310;2023-07-16T11:54:36;94894.94;;;26.16;51.06
75051;BME280;63628;47.656;11.310;2023-07-16T11:57:03;94885.69;;;24.89;54.63
75051;BME280;63628;47.656;11.310;2023-07-16T11:59:31;94877.38;;;26.13;56.75
75051;BME280;63628;47.656;11.310;2023-07-16T12:01:58;94883.41;;;26.19;54.34
75051;BME280;63628;47.656;11.310;2023-07-16T12:04:26;94884.97;;;25.52;56.43
75051;BME280;63628;47.656;11.310;2023-07-16T12:06:53;94881.00;;;25.33;57.12
75051;BME280;63628;47.656;11.310;2023-07-16T12:09:20;94879.44;;;25.40;54.61
75051;BME280;63628;47.656;11.310;2023-07-16T12:11:46;94874.47;;;25.34;56.92
75051;BME280;63628;47.656;11.310;2023-07-16T12:14:13;94868.28;;;25.80;56.17
75051;BME280;63628;47.656;11.310;2023-07-16T12:16:41;94870.50;;;25.31;57.45
75051;BME280;63628;47.656;11.310;2023-07-16T12:19:09;94872.91;;;25.79;55.76
75051;BME280;63628;47.656;11.310;2023-07-16T12:21:35;94869.19;;;25.46;57.07
75051;BME280;63628;47.656;11.310;2023-07-16T12:24:03;94875.13;;;25.31;58.10
75051;BME280;63628;47.656;11.310;2023-07-16T12:26:30;94866.94;;;25.56;57.92
75051;BME280;63628;47.656;11.310;2023-07-16T12:28:56;94876.47;;;25.63;57.29
75051;BME280;63628;47.656;11.310;2023-07-16T12:31:23;94878.56;;;25.57;56.46
75051;BME280;63628;47.656;11.310;2023-07-16T12:33:51;94874.16;;;25.35;55.16
75051;BME280;63628;47.656;11.310;2023-07-16T12:36:20;94870.06;;;25.76;56.53
75051;BME280;63628;47.656;11.310;2023-07-16T12:38:46;94866.00;;;25.52;56.80
75051;BME280;63628;47.656;11.310;2023-07-16T12:41:13;94863.63;;;25.89;55.55
75051;BME280;63628;47.656;11.310;2023-07-16T12:43:41;94864.34;;;24.96;54.50
75051;BME280;63628;47.656;11.310;2023-07-16T12:46:08;94860.03;;;25.12;54.64
75051;BME280;63628;47.656;11.310;2023-07-16T12:48:35;94859.53;;;25.19;55.09
75051;BME280;63628;47.656;11.310;2023-07-16T12:51:03;94863.00;;;25.83;54.76
75051;BME280;63628;47.656;11.310;2023-07-16T12:53:30;94855.03;;;25.32;54.34
75051;BME280;63628;47.656;11.310;2023-07-16T12:55:56;94856.25;;;25.51;53.94